Time;durP1;ratioP1;P1;durP2;ratioP2;P2;SDS_P1;SDS_P2;PMS_P1;PMS_P2;Temp;Humidity;BMP_temperature;BMP_pressure;BME280_temperature;BME280_humidity;BME280_pressure;Samples;Min_cycle;Max_cycle;Signal;HPM_P1;HPM_P2
2022/12/31 00:00:38;;;;;;;1.15;0.52;;;14.90;99.90;;;;;;5071870;28;20633;-58
2022/12/31 00:03:05;;;;;;;0.47;0.40;;;15.00;99.90;;;;;;5071881;28;20236;-58
2022/12/31 00:05:32;;;;;;;0.30;0.30;;;15.00;99.90;;;;;;5072136;28;20285;-57
2022/12/31 00:08:02;;;;;;;0.60;0.50;;;15.10;99.90;;;;;;5072353;28;20217;-58
2022/12/31 00:10:29;;;;;;;1.60;0.30;;;15.20;99.90;;;;;;5071882;28;20719;-57
2022/12/31 00:12:56;;;;;;;0.33;0.33;;;15.10;99.90;;;;;;5071892;28;20228;-59
2022/12/31 00:15:22;;;;;;;0.33;0.33;;;15.20;99.90;;;;;;5071769;28;20205;-59
2022/12/31 00:17:49;;;;;;;0.53;0.30;;;15.20;99.90;;;;;;5071464;28;20205;-59
2022/12/31 00:20:16;;;;;;;0.40;0.40;;;15.30;99.90;;;;;;5073890;28;20208;-58
2022/12/31 00:22:43;;;;;;;0.65;0.40;;;15.20;99.90;;;;;;5076151;28;20260;-58
2022/12/31 00:25:11;;;;;;;0.73;0.33;;;15.20;99.90;;;;;;5075882;28;20208;-59
2022/12/31 00:27:38;;;;;;;0.75;0.40;;;15.20;99.90;;;;;;5075407;28;20262;-59
2022/12/31 00:30:05;;;;;;;0.37;0.30;;;15.30;99.90;;;;;;5075667;28;20225;-59
2022/12/31 00:32:32;;;;;;;0.43;0.30;;;15.30;99.90;;;;;;5075495;28;20240;-58
2022/12/31 00:34:58;;;;;;;0.70;0.33;;;15.40;99.90;;;;;;5075282;28;20672;-58
2022/12/31 00:37:25;;;;;;;0.22;0.22;;;15.40;99.90;;;;;;5074927;28;20669;-58
2022/12/31 00:39:52;;;;;;;0.50;0.22;;;15.40;99.90;;;;;;5075372;28;20270;-59
2022/12/31 00:42:20;;;;;;;0.50;0.50;;;15.40;99.90;;;;;;5075035;28;20201;-59
2022/12/31 00:44:46;;;;;;;0.80;0.50;;;15.40;99.90;;;;;;5074817;28;20255;-59
2022/12/31 00:47:13;;;;;;;1.60;0.40;;;15.50;99.90;;;;;;5074526;28;20208;-58
2022/12/31 00:49:40;;;;;;;1.00;0.40;;;15.60;99.90;;;;;;5074755;28;20444;-58
2022/12/31 00:52:07;;;;;;;1.73;0.40;;;15.60;99.90;;;;;;5074713;28;20653;-59
2022/12/31 00:54:34;;;;;;;2.33;0.30;;;15.60;99.90;;;;;;5074841;28;20213;-57
2022/12/31 00:57:00;;;;;;;0.60;0.40;;;15.60;99.90;;;;;;5074401;28;20209;-59
2022/12/31 00:59:28;;;;;;;1.23;0.70;;;15.60;99.90;;;;;;5074625;28;20200;-58
2022/12/31 01:01:55;;;;;;;0.68;0.22;;;15.70;99.90;;;;;;5074767;28;20209;-58
2022/12/31 01:04:22;;;;;;;0.40;0.30;;;15.70;99.90;;;;;;5074813;28;20278;-59
2022/12/31 01:06:49;;;;;;;0.43;0.43;;;15.70;99.90;;;;;;5074626;28;20212;-59
2022/12/31 01:09:16;;;;;;;1.25;0.50;;;15.80;99.90;;;;;;5074814;28;20224;-59
2022/12/31 01:11:43;;;;;;;0.60;0.47;;;15.80;99.90;;;;;;5074740;28;20247;-57
2022/12/31 01:14:12;;;;;;;0.40;0.40;;;15.70;99.90;;;;;;5074799;28;20229;-59
2022/12/31 01:16:42;;;;;;;5.10;0.60;;;15.80;99.90;;;;;;5074869;28;20205;-57
2022/12/31 01:19:12;;;;;;;1.98;0.43;;;15.80;99.90;;;;;;5075052;28;20204;-60
2022/12/31 01:21:40;;;;;;;0.50;0.30;;;15.80;99.90;;;;;;5074845;28;20217;-58
2022/12/31 01:24:08;;;;;;;0.87;0.53;;;15.80;99.90;;;;;;5074488;28;20232;-58
2022/12/31 01:26:35;;;;;;;1.52;0.28;;;15.80;99.90;;;;;;5074110;28;20590;-58
2022/12/31 01:29:02;;;;;;;1.08;0.40;;;15.80;99.90;;;;;;5074384;28;20216;-58
2022/12/31 01:31:29;;;;;;;0.52;0.50;;;15.80;99.90;;;;;;5073374;28;20201;-57
2022/12/31 01:33:58;;;;;;;0.68;0.40;;;15.80;99.90;;;;;;5097167;22;20236;-57
2022/12/31 01:36:27;;;;;;;0.82;0.47;;;15.80;99.90;;;;;;5066691;28;20667;-55
2022/12/31 01:38:54;;;;;;;0.65;0.35;;;15.80;99.90;;;;;;5074311;28;20215;-57
2022/12/31 01:41:23;;;;;;;0.82;0.30;;;15.80;99.90;;;;;;5074600;28;20213;-57
2022/12/31 01:43:53;;;;;;;2.42;0.20;;;15.80;99.90;;;;;;5074263;28;20228;-56
2022/12/31 01:46:26;;;;;;;0.57;0.47;;;15.80;99.90;;;;;;5074308;28;20585;-57
2022/12/31 01:48:59;;;;;;;1.10;0.40;;;15.90;99.90;;;;;;5074701;28;20574;-56
2022/12/31 01:51:29;;;;;;;1.03;0.50;;;15.80;99.90;;;;;;5074009;28;20212;-56
2022/12/31 01:53:57;;;;;;;0.50;0.30;;;15.60;99.90;;;;;;5073922;28;20231;-57
2022/12/31 01:56:24;;;;;;;0.63;0.52;;;15.50;99.90;;;;;;5073950;28;20205;-57
2022/12/31 01:58:54;;;;;;;0.70;0.70;;;15.30;99.90;;;;;;5073536;28;20209;-56
2022/12/31 02:01:25;;;;;;;3.05;0.50;;;15.20;99.90;;;;;;5073878;28;20197;-56
2022/12/31 02:03:51;;;;;;;1.37;0.60;;;15.20;99.90;;;;;;5073552;28;20224;-56
2022/12/31 02:06:21;;;;;;;0.67;0.40;;;15.20;99.90;;;;;;5073571;28;20213;-56
2022/12/31 02:08:48;;;;;;;2.07;0.50;;;15.10;99.90;;;;;;5073500;28;20216;-57
2022/12/31 02:11:24;;;;;;;0.80;0.40;;;15.00;99.90;;;;;;5073588;28;20228;-56
2022/12/31 02:13:53;;;;;;;0.40;0.40;;;14.80;99.90;;;;;;5073458;28;20231;-57
2022/12/31 02:16:25;;;;;;;1.30;0.70;;;14.70;99.90;;;;;;5073536;28;20258;-56
2022/12/31 02:18:57;;;;;;;1.27;1.00;;;14.70;99.90;;;;;;5073553;28;20231;-56
2022/12/31 02:21:37;;;;;;;2.00;0.40;;;14.60;99.90;;;;;;5073407;28;20205;-57
2022/12/31 02:24:41;;;;;;;0.60;0.50;;;14.50;99.90;;;;;;5073353;28;20236;-55
2022/12/31 02:27:12;;;;;;;0.70;0.50;;;14.50;99.90;;;;;;5073169;28;20420;-56
2022/12/31 02:30:12;;;;;;;0.77;0.50;;;14.40;99.90;;;;;;5073352;28;20228;-57
2022/12/31 02:33:07;;;;;;;1.00;0.60;;;14.40;99.90;;;;;;5073045;28;20244;-56
2022/12/31 02:35:41;;;;;;;1.20;0.73;;;14.40;99.90;;;;;;5057763;28;20200;-56
2022/12/31 02:38:19;;;;;;;0.80;0.43;;;14.40;99.90;;;;;;5073125;28;20197;-56
2022/12/31 02:40:47;;;;;;;1.70;0.40;;;14.40;99.90;;;;;;5073036;28;20266;-56
2022/12/31 02:43:13;;;;;;;0.80;0.60;;;14.50;99.90;;;;;;5072556;28;20248;-56
2022/12/31 02:45:44;;;;;;;2.20;0.40;;;14.60;99.90;;;;;;5072630;28;20575;-56
2022/12/31 02:48:30;;;;;;;0.50;0.50;;;14.70;99.90;;;;;;5072886;28;20204;-57
2022/12/31 02:51:07;;;;;;;1.00;0.50;;;14.80;99.90;;;;;;5072974;28;20224;-56
2022/12/31 02:53:59;;;;;;;0.93;0.70;;;14.90;99.90;;;;;;5072792;28;20278;-56
2022/12/31 02:56:31;;;;;;;0.97;0.37;;;15.00;99.90;;;;;;5072887;28;20216;-56
2022/12/31 03:02:14;;;;;;;0.77;0.50;;;15.00;99.90;;;;;;5072960;28;20253;-56
2022/12/31 03:04:42;;;;;;;0.50;0.50;;;14.90;99.90;;;;;;5072978;28;20280;-56
2022/12/31 03:07:12;;;;;;;1.23;0.40;;;14.80;99.90;;;;;;5072770;28;20243;-56
2022/12/31 03:09:39;;;;;;;0.73;0.30;;;14.80;99.90;;;;;;5072814;28;20233;-56
2022/12/31 03:14:53;;;;;;;0.88;0.68;;;14.70;99.90;;;;;;5072534;28;20203;-56
2022/12/31 03:17:21;;;;;;;0.63;0.40;;;14.70;99.90;;;;;;5072787;28;20209;-58
2022/12/31 03:22:33;;;;;;;1.90;0.60;;;14.70;99.90;;;;;;5072591;28;20585;-57
2022/12/31 03:27:47;;;;;;;2.00;0.40;;;14.70;99.90;;;;;;5072292;28;20203;-56
2022/12/31 03:30:15;;;;;;;0.60;0.50;;;14.60;99.90;;;;;;5072449;28;20227;-57
2022/12/31 03:32:45;;;;;;;1.27;0.43;;;14.70;99.90;;;;;;5072275;28;20240;-56
2022/12/31 03:35:13;;;;;;;1.60;0.60;;;14.70;99.90;;;;;;5072307;28;20261;-56
2022/12/31 03:37:41;;;;;;;2.10;0.70;;;14.90;99.90;;;;;;5072049;28;20205;-56
2022/12/31 03:40:10;;;;;;;1.58;0.70;;;15.00;99.90;;;;;;5072477;28;20646;-56
2022/12/31 03:42:37;;;;;;;2.90;0.43;;;15.00;99.90;;;;;;5072436;28;20232;-56
2022/12/31 03:45:05;;;;;;;0.97;0.40;;;15.00;99.90;;;;;;5072435;28;20205;-56
2022/12/31 03:47:32;;;;;;;1.23;0.53;;;15.00;99.90;;;;;;5071963;28;20259;-56
2022/12/31 03:50:00;;;;;;;1.30;0.60;;;15.00;99.90;;;;;;5072210;28;20224;-56
2022/12/31 03:52:27;;;;;;;0.50;0.30;;;15.10;99.90;;;;;;5071960;28;20615;-57
2022/12/31 03:54:53;;;;;;;1.37;0.43;;;15.20;99.90;;;;;;5073647;28;20213;-56
2022/12/31 03:57:20;;;;;;;1.20;0.50;;;15.20;99.90;;;;;;5076332;28;20212;-56
2022/12/31 03:59:47;;;;;;;2.73;0.50;;;15.20;99.90;;;;;;5076662;28;20215;-57
2022/12/31 04:02:13;;;;;;;1.33;0.50;;;15.10;99.90;;;;;;5076698;28;20596;-56
2022/12/31 04:04:40;;;;;;;0.50;0.30;;;15.20;99.90;;;;;;5076106;28;20294;-56
2022/12/31 04:07:08;;;;;;;1.90;0.53;;;15.40;99.90;;;;;;5075829;28;20208;-56
2022/12/31 04:09:35;;;;;;;1.70;0.47;;;15.50;99.90;;;;;;5076221;28;20235;-56
2022/12/31 04:12:01;;;;;;;0.93;0.57;;;15.70;99.90;;;;;;5076248;28;20200;-56
2022/12/31 04:14:28;;;;;;;1.70;0.47;;;15.80;99.90;;;;;;5075911;28;20224;-55
2022/12/31 04:16:55;;;;;;;1.27;0.60;;;15.90;99.90;;;;;;5075930;28;20215;-55
2022/12/31 04:19:21;;;;;;;1.00;0.50;;;16.00;99.90;;;;;;5075980;28;20212;-57
2022/12/31 04:21:48;;;;;;;0.33;0.30;;;16.00;99.90;;;;;;5075746;28;20212;-55
2022/12/31 04:24:16;;;;;;;2.97;0.53;;;16.10;99.90;;;;;;5075984;28;20228;-56
2022/12/31 04:26:43;;;;;;;1.92;0.50;;;16.20;99.90;;;;;;5075935;28;20211;-56
2022/12/31 04:29:10;;;;;;;1.13;0.30;;;16.20;99.90;;;;;;5075693;28;20205;-57
2022/12/31 04:31:37;;;;;;;0.83;0.40;;;16.30;99.90;;;;;;5075347;28;20593;-56
2022/12/31 04:34:04;;;;;;;0.65;0.30;;;16.40;99.90;;;;;;5075098;28;20236;-57
2022/12/31 04:36:31;;;;;;;0.10;0.10;;;16.50;99.90;;;;;;5075484;28;20212;-56
2022/12/31 04:38:57;;;;;;;1.27;0.50;;;16.50;99.90;;;;;;5075327;28;20208;-56
2022/12/31 04:41:26;;;;;;;0.40;0.40;;;16.60;99.90;;;;;;5075272;28;20578;-57
2022/12/31 04:43:54;;;;;;;1.15;0.60;;;16.60;99.90;;;;;;5075053;28;20221;-57
2022/12/31 04:46:24;;;;;;;2.28;0.52;;;16.60;99.90;;;;;;5074936;28;20211;-57
2022/12/31 04:48:51;;;;;;;0.93;0.30;;;16.60;99.90;;;;;;5074728;28;20577;-57
2022/12/31 04:51:18;;;;;;;0.40;0.40;;;16.60;99.90;;;;;;5075001;28;20228;-57
2022/12/31 04:53:45;;;;;;;1.23;0.40;;;16.60;99.90;;;;;;5075039;28;20735;-57
2022/12/31 04:56:11;;;;;;;0.50;0.45;;;16.70;99.90;;;;;;5075086;28;20208;-56
2022/12/31 04:58:40;;;;;;;1.88;0.50;;;16.60;99.90;;;;;;5074903;28;20212;-58
2022/12/31 05:01:07;;;;;;;1.17;0.40;;;16.50;99.90;;;;;;5074708;28;20560;-57
2022/12/31 05:03:34;;;;;;;0.45;0.40;;;16.40;99.90;;;;;;5075065;28;20239;-56
2022/12/31 05:06:03;;;;;;;1.95;0.80;;;16.30;99.90;;;;;;5074844;28;20232;-58
2022/12/31 05:08:30;;;;;;;0.57;0.40;;;16.40;99.90;;;;;;5074443;28;20581;-56
2022/12/31 05:10:56;;;;;;;2.58;0.68;;;16.40;99.90;;;;;;5074867;28;20225;-58
2022/12/31 05:13:24;;;;;;;0.50;0.35;;;16.40;99.90;;;;;;5075158;28;20228;-57
2022/12/31 05:15:52;;;;;;;1.98;0.90;;;16.40;99.90;;;;;;5074848;28;20212;-57
2022/12/31 05:18:19;;;;;;;1.92;0.52;;;16.30;99.90;;;;;;5074409;28;20204;-57
2022/12/31 05:20:46;;;;;;;1.23;0.65;;;16.20;99.90;;;;;;5074706;28;20208;-57
2022/12/31 05:23:13;;;;;;;0.30;0.30;;;16.10;99.90;;;;;;5074573;28;20225;-56
2022/12/31 05:25:41;;;;;;;0.63;0.40;;;16.10;99.90;;;;;;5074672;28;20261;-57
2022/12/31 05:28:08;;;;;;;0.88;0.88;;;16.00;99.90;;;;;;5074107;28;20201;-57
2022/12/31 05:30:35;;;;;;;1.58;0.50;;;15.90;99.90;;;;;;5074515;28;20247;-56
2022/12/31 05:33:03;;;;;;;1.00;0.55;;;15.80;99.90;;;;;;5074320;28;20232;-57
2022/12/31 05:35:30;;;;;;;0.80;0.40;;;15.70;99.90;;;;;;5074280;28;20215;-57
2022/12/31 05:37:56;;;;;;;0.75;0.40;;;15.70;99.90;;;;;;5074021;28;20658;-57
2022/12/31 05:40:23;;;;;;;0.32;0.32;;;15.70;99.90;;;;;;5074149;28;20216;-58
2022/12/31 05:42:50;;;;;;;1.00;0.73;;;15.70;99.90;;;;;;5073963;28;20236;-58
2022/12/31 05:45:17;;;;;;;2.55;1.20;;;15.70;99.90;;;;;;5074247;28;20209;-57
2022/12/31 05:47:44;;;;;;;1.20;0.40;;;15.80;99.90;;;;;;5074065;28;20204;-58
2022/12/31 05:50:15;;;;;;;1.67;0.50;;;15.80;99.90;;;;;;5073865;28;20200;-56
2022/12/31 05:52:41;;;;;;;0.65;0.52;;;15.80;99.90;;;;;;5074020;28;20298;-57
2022/12/31 05:55:09;;;;;;;2.58;0.50;;;15.90;99.90;;;;;;5073764;28;20254;-57
2022/12/31 05:57:36;;;;;;;0.80;0.40;;;16.00;99.90;;;;;;5073859;28;20209;-57
2022/12/31 06:00:03;;;;;;;0.97;0.37;;;15.90;99.90;;;;;;5074038;28;20205;-57
2022/12/31 06:02:30;;;;;;;0.50;0.40;;;16.00;99.90;;;;;;5073808;28;20208;-57
2022/12/31 06:04:57;;;;;;;2.67;1.05;;;16.00;99.90;;;;;;5073604;28;20208;-57
2022/12/31 06:07:25;;;;;;;1.17;1.00;;;16.00;99.90;;;;;;5073268;28;20213;-56
2022/12/31 06:09:52;;;;;;;2.42;1.10;;;16.10;99.90;;;;;;5073518;28;20205;-56
2022/12/31 06:12:18;;;;;;;0.73;0.52;;;16.20;99.90;;;;;;5073221;28;20235;-56
2022/12/31 06:14:45;;;;;;;1.52;0.60;;;16.30;99.90;;;;;;5073525;28;20216;-56
2022/12/31 06:17:12;;;;;;;1.05;0.70;;;16.40;99.90;;;;;;5072760;28;20212;-57
2022/12/31 06:19:38;;;;;;;0.95;0.60;;;16.30;99.90;;;;;;5073419;28;20209;-56
2022/12/31 06:22:05;;;;;;;0.40;0.30;;;16.40;99.90;;;;;;5073277;28;20204;-57
2022/12/31 06:24:33;;;;;;;1.80;0.50;;;16.50;99.90;;;;;;5073004;28;20629;-57
2022/12/31 06:27:00;;;;;;;0.73;0.40;;;16.50;99.90;;;;;;5073068;28;20286;-56
2022/12/31 06:29:27;;;;;;;1.40;1.20;;;16.60;99.90;;;;;;5073433;28;20220;-57
2022/12/31 06:31:53;;;;;;;0.90;0.45;;;16.60;99.90;;;;;;5073354;28;20248;-57
2022/12/31 06:34:20;;;;;;;1.52;0.50;;;16.60;99.90;;;;;;5072923;28;20232;-56
2022/12/31 06:36:47;;;;;;;1.33;0.50;;;16.70;99.90;;;;;;5072995;28;20291;-57
2022/12/31 06:39:13;;;;;;;2.05;0.77;;;16.70;99.90;;;;;;5072974;28;20216;-57
2022/12/31 06:41:41;;;;;;;1.05;0.45;;;16.70;99.90;;;;;;5073137;28;20211;-57
2022/12/31 06:44:08;;;;;;;1.40;0.30;;;16.60;99.90;;;;;;5072852;28;20708;-56
2022/12/31 06:46:35;;;;;;;0.55;0.38;;;16.60;99.90;;;;;;5072905;28;20208;-56
2022/12/31 06:49:01;;;;;;;1.88;0.50;;;16.60;99.90;;;;;;5072867;28;20209;-57
2022/12/31 06:51:28;;;;;;;3.22;0.57;;;16.50;99.90;;;;;;5072629;28;20225;-57
2022/12/31 06:53:55;;;;;;;0.52;0.45;;;16.60;99.90;;;;;;5072957;28;20259;-57
2022/12/31 06:56:24;;;;;;;0.73;0.57;;;16.60;99.90;;;;;;5072851;28;20266;-57
2022/12/31 06:58:52;;;;;;;0.35;0.35;;;16.50;99.90;;;;;;5072771;28;20275;-56
2022/12/31 07:01:36;;;;;;;1.42;0.70;;;16.50;99.90;;;;;;5072604;28;20626;-57
2022/12/31 07:04:31;;;;;;;1.08;0.88;;;16.60;99.90;;;;;;5072431;28;20224;-57
2022/12/31 07:07:06;;;;;;;1.38;0.68;;;16.60;99.90;;;;;;5072576;28;20212;-57
2022/12/31 07:09:40;;;;;;;0.98;0.55;;;16.60;99.90;;;;;;5072441;28;20215;-58
2022/12/31 07:12:12;;;;;;;0.75;0.50;;;16.50;99.90;;;;;;5072539;28;20696;-57
2022/12/31 07:14:48;;;;;;;1.23;0.40;;;16.50;99.90;;;;;;5072591;28;20235;-57
2022/12/31 07:17:27;;;;;;;1.00;0.50;;;16.50;99.90;;;;;;5072330;28;20216;-57
2022/12/31 07:20:00;;;;;;;1.20;1.10;;;16.70;99.90;;;;;;5072296;28;20213;-58
2022/12/31 07:22:28;;;;;;;0.80;0.40;;;16.70;99.90;;;;;;5072275;28;20205;-56
2022/12/31 07:24:55;;;;;;;0.47;0.47;;;16.70;99.90;;;;;;5072055;28;20205;-57
2022/12/31 07:27:44;;;;;;;1.08;0.45;;;16.70;99.90;;;;;;5072027;28;20220;-57
2022/12/31 07:30:16;;;;;;;0.85;0.40;;;16.80;99.90;;;;;;5071437;28;20241;-57
2022/12/31 07:33:01;;;;;;;1.00;0.30;;;16.80;99.90;;;;;;5096966;22;20229;-58
2022/12/31 07:35:38;;;;;;;1.55;0.43;;;16.80;99.90;;;;;;5039651;28;20205;-58
2022/12/31 07:38:13;;;;;;;0.20;0.20;;;16.80;99.90;;;;;;5049795;28;20220;-59
2022/12/31 07:40:53;;;;;;;1.55;0.63;;;16.80;99.90;;;;;;5052017;28;20209;-58
2022/12/31 07:43:29;;;;;;;1.30;0.98;;;16.90;99.90;;;;;;5051905;28;20598;-57
2022/12/31 07:46:06;;;;;;;9.55;6.18;;;16.90;99.90;;;;;;5051959;28;20209;-59
2022/12/31 07:48:34;;;;;;;0.65;0.47;;;17.10;99.90;;;;;;5051750;28;20209;-59
2022/12/31 07:51:01;;;;;;;1.58;0.73;;;17.00;99.90;;;;;;5051740;28;20276;-57
2022/12/31 07:53:28;;;;;;;1.83;1.25;;;17.10;99.90;;;;;;5051679;28;20229;-60
2022/12/31 07:55:58;;;;;;;0.85;0.50;;;17.10;99.90;;;;;;5051829;28;20351;-58
2022/12/31 07:58:34;;;;;;;1.48;0.93;;;17.20;99.90;;;;;;5051927;28;20205;-58
2022/12/31 08:01:03;;;;;;;1.63;0.60;;;17.20;99.90;;;;;;5051996;28;20216;-58
2022/12/31 08:03:47;;;;;;;2.67;0.93;;;17.20;99.90;;;;;;5051766;28;20234;-63
2022/12/31 08:06:23;;;;;;;1.02;0.80;;;17.30;99.90;;;;;;5052145;28;20205;-64
2022/12/31 08:08:58;;;;;;;1.77;0.70;;;17.40;99.90;;;;;;5051683;28;20296;-64
2022/12/31 08:11:32;;;;;;;1.73;0.50;;;17.40;99.90;;;;;;5051620;28;20220;-65
2022/12/31 08:14:01;;;;;;;1.13;0.70;;;17.50;99.90;;;;;;5051633;28;20228;-64
2022/12/31 08:16:30;;;;;;;1.60;0.40;;;17.60;99.90;;;;;;5051634;28;20209;-63
2022/12/31 08:18:57;;;;;;;3.50;0.50;;;17.50;99.90;;;;;;5051345;28;20263;-63
2022/12/31 08:21:38;;;;;;;3.58;0.70;;;17.50;99.90;;;;;;5051894;28;20209;-63
2022/12/31 08:24:14;;;;;;;1.25;0.70;;;17.50;99.90;;;;;;5051373;28;20316;-62
2022/12/31 08:26:49;;;;;;;0.47;0.40;;;17.60;99.90;;;;;;5051740;28;20486;-63
2022/12/31 08:29:30;;;;;;;0.28;0.28;;;17.60;99.90;;;;;;5051324;28;20213;-63
2022/12/31 08:32:07;;;;;;;0.55;0.50;;;17.60;99.90;;;;;;5051546;28;20236;-63
2022/12/31 08:34:44;;;;;;;0.85;0.52;;;17.70;99.90;;;;;;5051636;28;20336;-62
2022/12/31 08:37:17;;;;;;;0.50;0.30;;;17.80;99.90;;;;;;5051561;28;20205;-63
2022/12/31 08:39:58;;;;;;;0.47;0.40;;;17.90;99.90;;;;;;5051375;28;20213;-63
2022/12/31 08:42:31;;;;;;;0.65;0.35;;;18.00;99.90;;;;;;5055045;28;20263;-63
2022/12/31 08:45:06;;;;;;;1.27;0.40;;;18.00;99.90;;;;;;5054750;28;20229;-62
2022/12/31 08:47:45;;;;;;;0.65;0.40;;;18.10;99.90;;;;;;5054922;28;20205;-63
2022/12/31 08:50:17;;;;;;;0.43;0.35;;;18.10;99.90;;;;;;5054836;28;20205;-63
2022/12/31 08:52:44;;;;;;;0.85;0.50;;;18.10;99.90;;;;;;5055615;28;20221;-63
2022/12/31 08:55:17;;;;;;;2.60;0.40;;;18.20;99.90;;;;;;5055357;28;20214;-63
2022/12/31 08:57:53;;;;;;;0.77;0.20;;;18.20;99.90;;;;;;5055041;28;20298;-62
2022/12/31 09:00:21;;;;;;;1.25;0.70;;;18.20;99.90;;;;;;5054915;28;20239;-63
2022/12/31 09:03:02;;;;;;;0.65;0.30;;;18.30;99.90;;;;;;5054813;28;20201;-63
2022/12/31 09:05:35;;;;;;;0.55;0.40;;;18.30;99.90;;;;;;5054887;28;20206;-62
2022/12/31 09:08:13;;;;;;;0.70;0.47;;;18.30;99.90;;;;;;5054788;28;20613;-63
2022/12/31 09:10:46;;;;;;;0.30;0.30;;;18.30;99.90;;;;;;5054837;28;20202;-63
2022/12/31 09:13:20;;;;;;;0.43;0.30;;;18.30;99.90;;;;;;5054526;28;20252;-63
2022/12/31 09:15:51;;;;;;;3.33;0.50;;;18.30;99.90;;;;;;5054385;28;20672;-63
2022/12/31 09:18:20;;;;;;;0.50;0.30;;;18.40;99.90;;;;;;5054296;28;20666;-65
2022/12/31 09:20:47;;;;;;;0.60;0.40;;;18.30;99.90;;;;;;5054502;28;20688;-62
2022/12/31 09:23:14;;;;;;;1.30;0.30;;;18.40;99.90;;;;;;5054450;28;20252;-63
2022/12/31 09:25:50;;;;;;;0.43;0.28;;;18.30;99.90;;;;;;5054515;28;20239;-62
2022/12/31 09:28:27;;;;;;;0.55;0.40;;;18.30;99.90;;;;;;5056009;28;20255;-64
2022/12/31 09:30:58;;;;;;;2.47;0.63;;;18.40;99.90;;;;;;5055448;28;20205;-64
2022/12/31 09:33:38;;;;;;;1.08;0.40;;;18.50;99.90;;;;;;5055348;28;20732;-64
2022/12/31 09:36:08;;;;;;;0.93;0.40;;;18.70;99.90;;;;;;5054614;28;20205;-64
2022/12/31 09:38:40;;;;;;;2.45;1.08;;;18.80;99.90;;;;;;5054503;28;20217;-66
2022/12/31 09:41:16;;;;;;;0.47;0.47;;;18.90;99.90;;;;;;5054700;28;20214;-63
2022/12/31 09:44:25;;;;;;;1.08;0.45;;;19.00;99.90;;;;;;5054239;28;20225;-64
2022/12/31 09:47:30;;;;;;;0.65;0.47;;;19.10;99.90;;;;;;5054571;28;20219;-63
2022/12/31 09:50:36;;;;;;;4.75;3.95;;;19.10;99.90;;;;;;5037020;28;20213;-64
2022/12/31 09:53:36;;;;;;;1.33;0.50;;;19.10;99.90;;;;;;5054663;28;20233;-64
2022/12/31 09:56:10;;;;;;;0.90;0.40;;;19.10;99.90;;;;;;5054470;28;20209;-64
2022/12/31 09:58:45;;;;;;;1.30;0.60;;;19.20;99.90;;;;;;5054182;28;20210;-64
2022/12/31 10:01:27;;;;;;;0.80;0.50;;;19.30;99.90;;;;;;5054454;28;20669;-63
2022/12/31 10:04:21;;;;;;;2.05;0.40;;;19.40;99.90;;;;;;5053760;28;20276;-64
2022/12/31 10:06:59;;;;;;;1.33;0.38;;;19.50;99.90;;;;;;5051575;28;20205;-62
2022/12/31 10:09:36;;;;;;;3.10;0.70;;;19.60;99.90;;;;;;5053577;28;20228;-63
2022/12/31 10:12:23;;;;;;;0.77;0.55;;;19.60;99.90;;;;;;5053502;28;20636;-64
2022/12/31 10:15:08;;;;;;;0.80;0.47;;;19.70;99.90;;;;;;5053532;28;20244;-63
2022/12/31 10:17:52;;;;;;;2.70;1.80;;;19.80;99.90;;;;;;5053236;28;20247;-64
2022/12/31 10:20:40;;;;;;;2.33;0.52;;;19.90;99.90;;;;;;5053291;28;20206;-64
2022/12/31 10:23:38;;;;;;;0.65;0.50;;;20.10;99.90;;;;;;5053103;28;20229;-64
2022/12/31 10:26:13;;;;;;;0.93;0.52;;;20.10;99.90;;;;;;5053456;28;20220;-65
2022/12/31 10:28:48;;;;;;;2.08;0.63;;;20.30;99.90;;;;;;5053307;28;20685;-67
2022/12/31 10:31:42;;;;;;;1.35;0.50;;;20.30;99.90;;;;;;5053927;28;20719;-64
2022/12/31 10:34:14;;;;;;;0.65;0.50;;;20.30;99.90;;;;;;5053513;28;20233;-64
2022/12/31 10:36:54;;;;;;;1.80;0.70;;;20.30;99.90;;;;;;5053559;28;20209;-67
2022/12/31 10:39:38;;;;;;;1.60;0.50;;;20.30;99.90;;;;;;5052949;28;20217;-62
2022/12/31 10:42:38;;;;;;;0.40;0.30;;;20.30;99.90;;;;;;5053140;28;20205;-64
2022/12/31 10:45:53;;;;;;;1.23;0.52;;;20.30;99.90;;;;;;5053219;28;20296;-64
2022/12/31 10:49:10;;;;;;;1.45;0.40;;;20.30;99.90;;;;;;5053156;28;20255;-65
2022/12/31 10:52:06;;;;;;;1.05;0.38;;;20.40;99.90;;;;;;5052892;28;20630;-64
2022/12/31 10:55:12;;;;;;;1.00;0.90;;;20.40;99.90;;;;;;5052988;28;20567;-64
2022/12/31 10:58:17;;;;;;;0.47;0.40;;;20.40;99.90;;;;;;4996169;28;20203;-65
2022/12/31 11:00:53;;;;;;;1.50;0.45;;;20.40;99.90;;;;;;4997642;28;20815;-65
2022/12/31 11:04:03;;;;;;;2.65;0.60;;;20.50;99.90;;;;;;5051678;28;20221;-63
2022/12/31 11:07:11;;;;;;;1.92;0.45;;;20.50;99.90;;;;;;5051912;28;20255;-62
2022/12/31 11:10:05;;;;;;;1.58;0.70;;;20.40;99.90;;;;;;5043882;28;20700;-63
2022/12/31 11:12:52;;;;;;;1.40;0.70;;;20.40;99.90;;;;;;5051409;28;20225;-68
2022/12/31 11:15:38;;;;;;;2.67;0.77;;;20.40;99.90;;;;;;5051488;28;20650;-66
2022/12/31 11:18:15;;;;;;;1.25;0.70;;;20.40;99.90;;;;;;5051533;28;20209;-65
2022/12/31 11:21:03;;;;;;;1.25;0.95;;;20.40;99.90;;;;;;5051414;28;20212;-66
2022/12/31 11:23:40;;;;;;;0.63;0.40;;;20.30;99.90;;;;;;5051367;28;20301;-66
2022/12/31 11:26:17;;;;;;;1.58;0.40;;;20.30;99.90;;;;;;5051152;28;20256;-65
2022/12/31 11:29:02;;;;;;;1.05;0.40;;;20.30;99.90;;;;;;5050966;28;20521;-65
2022/12/31 11:31:41;;;;;;;0.50;0.30;;;20.20;99.90;;;;;;5051223;28;20304;-66
2022/12/31 11:34:24;;;;;;;0.80;0.50;;;20.20;99.90;;;;;;5050606;28;20583;-65
2022/12/31 11:37:09;;;;;;;0.40;0.40;;;20.20;99.90;;;;;;5050965;28;20688;-66
2022/12/31 11:39:49;;;;;;;0.80;0.57;;;20.30;99.90;;;;;;5050627;28;20205;-65
2022/12/31 11:42:21;;;;;;;2.30;1.33;;;20.40;99.90;;;;;;5050858;28;20213;-65
2022/12/31 11:44:55;;;;;;;0.50;0.47;;;20.50;99.90;;;;;;5050972;28;20221;-68
2022/12/31 11:47:51;;;;;;;0.77;0.40;;;20.60;99.90;;;;;;5050626;28;20208;-66
2022/12/31 11:50:28;;;;;;;0.30;0.30;;;20.70;99.90;;;;;;5051087;28;20255;-66
2022/12/31 11:53:08;;;;;;;1.25;0.45;;;20.70;99.90;;;;;;5050673;28;20224;-66
2022/12/31 11:55:58;;;;;;;0.65;0.60;;;20.80;99.90;;;;;;5050777;28;20208;-66
2022/12/31 11:58:27;;;;;;;1.02;0.90;;;20.90;99.90;;;;;;5050631;28;20212;-65
2022/12/31 12:00:56;;;;;;;1.75;0.40;;;21.00;99.90;;;;;;5050875;28;20198;-66
2022/12/31 12:03:24;;;;;;;0.93;0.40;;;21.00;99.90;;;;;;5050749;28;20251;-65
2022/12/31 12:05:51;;;;;;;0.20;0.20;;;21.00;99.90;;;;;;5050472;28;20275;-65
2022/12/31 12:08:18;;;;;;;0.75;0.35;;;20.90;99.90;;;;;;5050402;28;20225;-66
2022/12/31 12:10:48;;;;;;;1.23;0.45;;;20.90;99.90;;;;;;5050224;28;20209;-66
2022/12/31 12:13:22;;;;;;;2.45;0.70;;;20.90;99.90;;;;;;5050745;28;20229;-65
2022/12/31 12:15:51;;;;;;;0.98;0.50;;;21.00;99.90;;;;;;5051770;28;20205;-66
2022/12/31 12:18:33;;;;;;;2.85;0.80;;;20.90;99.90;;;;;;5054777;28;20201;-66
2022/12/31 12:21:07;;;;;;;6.55;2.70;;;21.00;99.90;;;;;;5054872;28;20216;-66
2022/12/31 12:23:34;;;;;;;1.33;0.80;;;21.10;99.90;;;;;;5054146;28;20217;-65
2022/12/31 12:26:01;;;;;;;1.27;0.40;;;21.00;99.90;;;;;;5054474;28;20213;-65
2022/12/31 12:28:29;;;;;;;0.35;0.35;;;21.00;99.90;;;;;;5054130;28;20529;-65
2022/12/31 12:30:59;;;;;;;1.40;0.60;;;21.00;99.90;;;;;;5054305;28;20616;-65
2022/12/31 12:33:30;;;;;;;1.08;0.50;;;21.10;99.90;;;;;;5054329;28;20229;-65
2022/12/31 12:36:07;;;;;;;1.98;0.60;;;21.00;99.90;;;;;;5054079;28;20209;-65
2022/12/31 12:38:34;;;;;;;3.15;2.33;;;21.00;99.90;;;;;;5054488;28;20262;-65
2022/12/31 12:41:05;;;;;;;0.95;0.50;;;21.00;99.90;;;;;;5054195;28;20213;-66
2022/12/31 12:43:34;;;;;;;0.45;0.40;;;21.00;99.90;;;;;;5053818;28;20230;-66
2022/12/31 12:46:03;;;;;;;1.42;0.75;;;21.00;99.90;;;;;;5054316;28;20233;-70
2022/12/31 12:48:37;;;;;;;0.47;0.30;;;21.00;99.90;;;;;;5053897;28;20206;-66
2022/12/31 12:51:20;;;;;;;2.00;0.50;;;21.00;99.90;;;;;;5054409;28;20206;-66
2022/12/31 12:53:58;;;;;;;0.60;0.43;;;21.00;99.90;;;;;;5053781;28;20225;-66
2022/12/31 12:56:34;;;;;;;1.27;0.68;;;21.00;99.90;;;;;;5054540;28;20209;-66
2022/12/31 12:59:37;;;;;;;0.40;0.40;;;21.00;99.90;;;;;;5054226;28;20210;-66
2022/12/31 13:02:32;;;;;;;0.60;0.45;;;21.00;99.90;;;;;;5055067;28;20206;-66
2022/12/31 13:05:12;;;;;;;0.38;0.28;;;21.00;99.90;;;;;;5054663;28;20237;-65
2022/12/31 13:07:51;;;;;;;1.30;0.85;;;21.00;99.90;;;;;;5056229;28;20234;-65
2022/12/31 13:10:32;;;;;;;2.38;0.77;;;21.00;99.90;;;;;;5055504;28;20209;-66
2022/12/31 13:13:06;;;;;;;1.60;0.77;;;21.00;99.90;;;;;;5054365;28;20233;-66
2022/12/31 13:15:39;;;;;;;0.82;0.60;;;20.90;99.90;;;;;;5053840;28;20206;-67
2022/12/31 13:18:21;;;;;;;0.40;0.30;;;20.80;99.90;;;;;;5054416;28;20201;-66
2022/12/31 13:20:54;;;;;;;0.75;0.32;;;20.80;99.90;;;;;;5054258;28;20209;-66
2022/12/31 13:23:26;;;;;;;0.65;0.50;;;20.70;99.90;;;;;;5054009;28;20221;-65
2022/12/31 13:26:04;;;;;;;1.63;0.65;;;20.70;99.90;;;;;;5053243;28;20213;-66
2022/12/31 13:28:32;;;;;;;0.60;0.20;;;20.70;99.90;;;;;;5053500;28;20447;-66
2022/12/31 13:31:01;;;;;;;0.75;0.47;;;20.70;99.90;;;;;;5053390;28;20673;-65